Irvine, CA

4:43 AM PST on December 19, 2014 (GMT -0800)
John Wayne-Orange County | Change Station
CLOSE
Current Station
Airport
Location: Santa Ana,
Elevation: 56 ft
Nearby Weather Stations

Elev 56 ft 33.68 °N, 117.87 °W | Updated 50 minutes ago

Clear
Clear
52 °F
Feels Like 52 °F
N
0
Wind Variable Wind from North

Today
High -- | Low -- °F
--% Chance of Precip.
Yesterday
High -- | Low -- °F
Precip. -- in
6:51 AM 4:46 PM
Waning Crescent, 8% visible
Pressure 30.19 in
Visibility 10.0 miles
Clouds Clear
Dew Point 46 °F
Humidity 80%
Rainfall 0.00 in
Snow Depth Not available.
UV 0 out of 12
Pollen 3.80 out of 12
Air Quality Not available.
Flu Activity Not available.
METAR KSNA 191153Z AUTO 00000KT 10SM CLR 11/08 A3019 RMK AO2 SLP224 T01110078 10144 20111 58004 TSNO

More Conditions Fewer Conditions

Pressure 30.19 in
Visibility 10.0 miles
Clouds Clear
Dew Point 46 °F
Humidity 80%
Rainfall 0.00 in
Snow Depth Not available.
UV 0 out of 12
Pollen 3.80 out of 12
Air Quality Not available.
Flu Activity Not available.
METAR KSNA 191153Z AUTO 00000KT 10SM CLR 11/08 A3019 RMK AO2 SLP224 T01110078 10144 20111 58004 TSNO

More Conditions Fewer Conditions

10-Day Weather Forecast

Almanac

Astronomy

Dec. 19, 2014 Rise Set
Actual Time
Civil Twilight
Nautical Twilight
Astronomical Twilight
Moon
Length of Visible Light
Length of Day
Tomorrow will be .
, % of the Moon is Illuminated

Today's Extremes

State Highs State Lows

Community

WunderPhotos

Upload Photos

1,778,975 photos uploaded!

WunderBlogs® & News

Nearby

Air Quality

  Air Quality AQ Index Pollutant
Not available.

Snow Depth

Station Depth Elevation

Earthquake Activity

City Distance Mag. Time & Date
Minimum magnitude displayed is 2.5.

Coastal Water Temperatures

Place Temperature

Nearby Weather Stations